Private Wetterstation Sandau
Wetterdaten: Samstag, 02.06.2012
Datum Zeit Temp. A. Feuchte A. Luftdruck Regen Wind Richtung Richtung Taupunkt Windchill
02.06.2012 00:01 9,2 C 64 % 1015,0 hPa 0,0 l/m 7,6 km/h (2 Bft) W-NW 292 2,8 C 8,2 C
02.06.2012 00:06 9,1 C 65 % 1015,1 hPa 0,0 l/m 9,7 km/h (2 Bft) W-NW 292 2,9 C 7,6 C
02.06.2012 00:11 9,1 C 65 % 1015,1 hPa 0,0 l/m 13,3 km/h (3 Bft) W 270 2,9 C 7,0 C
02.06.2012 00:16 8,9 C 66 % 1015,0 hPa 0,0 l/m 7,2 km/h (2 Bft) NW 315 2,9 C 7,9 C
02.06.2012 00:21 8,9 C 66 % 1014,8 hPa 0,0 l/m 7,2 km/h (2 Bft) W-NW 292 2,9 C 7,9 C
02.06.2012 00:26 8,9 C 66 % 1014,8 hPa 0,0 l/m 3,2 km/h (1 Bft) W 270 2,9 C 8,9 C
02.06.2012 00:31 8,8 C 67 % 1014,9 hPa 0,0 l/m 8,6 km/h (2 Bft) W 270 3,0 C 7,5 C
02.06.2012 00:36 8,7 C 67 % 1014,9 hPa 0,0 l/m 7,2 km/h (2 Bft) W 270 2,9 C 7,7 C
02.06.2012 00:41 8,6 C 67 % 1014,9 hPa 0,0 l/m 7,2 km/h (2 Bft) W-NW 292 2,8 C 7,5 C
02.06.2012 00:46 8,5 C 68 % 1014,9 hPa 0,0 l/m 5,0 km/h (1 Bft) W 270 2,9 C 8,1 C
02.06.2012 00:51 8,4 C 69 % 1014,9 hPa 0,0 l/m 8,3 km/h (2 Bft) W-NW 292 3,0 C 7,1 C
02.06.2012 00:56 8,4 C 69 % 1014,8 hPa 0,0 l/m 10,1 km/h (2 Bft) W 270 3,0 C 6,7 C
02.06.2012 01:01 8,3 C 69 % 1014,8 hPa 0,0 l/m 4,7 km/h (1 Bft) W 270 3,0 C 7,9 C
02.06.2012 01:06 8,3 C 70 % 1014,9 hPa 0,0 l/m 13,7 km/h (3 Bft) NW 315 3,2 C 6,0 C
02.06.2012 01:11 8,2 C 70 % 1014,9 hPa 0,0 l/m 9,7 km/h (2 Bft) W-SW 247 3,1 C 6,5 C
02.06.2012 01:16 8,1 C 71 % 1014,9 hPa 0,0 l/m 10,1 km/h (2 Bft) W 270 3,2 C 6,3 C
02.06.2012 01:21 8,1 C 71 % 1014,9 hPa 0,0 l/m 11,9 km/h (2 Bft) NW 315 3,2 C 6,0 C
02.06.2012 01:26 8,1 C 72 % 1015,0 hPa 0,0 l/m 10,4 km/h (2 Bft) W 270 3,4 C 6,3 C
02.06.2012 01:31 7,9 C 71 % 1014,6 hPa 0,0 l/m 7,9 km/h (2 Bft) W-NW 292 3,0 C 6,6 C
02.06.2012 01:36 7,9 C 71 % 1014,6 hPa 0,0 l/m 5,0 km/h (1 Bft) W 270 3,0 C 7,4 C
02.06.2012 01:41 7,9 C 72 % 1014,7 hPa 0,0 l/m 10,4 km/h (2 Bft) W 270 3,2 C 6,0 C
02.06.2012 01:46 7,9 C 72 % 1014,6 hPa 0,0 l/m 8,6 km/h (2 Bft) NW 315 3,2 C 6,4 C
02.06.2012 01:51 7,9 C 72 % 1014,6 hPa 0,0 l/m 10,1 km/h (2 Bft) W-NW 292 3,2 C 6,1 C
02.06.2012 01:56 7,8 C 72 % 1014,7 hPa 0,0 l/m 6,1 km/h (2 Bft) W-NW 292 3,1 C 6,9 C
02.06.2012 02:01 7,8 C 73 % 1014,7 hPa 0,0 l/m 5,0 km/h (1 Bft) NW 315 3,3 C 7,3 C
02.06.2012 02:06 7,8 C 73 % 1014,7 hPa 0,0 l/m 7,2 km/h (2 Bft) W-NW 292 3,3 C 6,6 C
02.06.2012 02:11 7,8 C 73 % 1014,6 hPa 0,0 l/m 4,0 km/h (1 Bft) W 270 3,3 C 7,8 C
02.06.2012 02:16 7,8 C 73 % 1014,6 hPa 0,0 l/m 5,0 km/h (1 Bft) W-NW 292 3,3 C 7,3 C
02.06.2012 02:21 7,8 C 74 % 1014,6 hPa 0,0 l/m 6,1 km/h (2 Bft) W-SW 247 3,5 C 6,9 C
02.06.2012 02:26 7,8 C 74 % 1014,6 hPa 0,0 l/m 4,0 km/h (1 Bft) W-SW 247 3,5 C 7,8 C
02.06.2012 02:31 7,9 C 74 % 1014,7 hPa 0,0 l/m 7,6 km/h (2 Bft) W-SW 247 3,6 C 6,6 C
02.06.2012 02:36 7,9 C 74 % 1014,7 hPa 0,0 l/m 6,5 km/h (2 Bft) W 270 3,6 C 6,9 C
02.06.2012 02:41 7,9 C 74 % 1014,8 hPa 0,0 l/m 2,5 km/h (1 Bft) W 270 3,6 C 7,9 C
02.06.2012 02:46 7,9 C 73 % 1014,7 hPa 0,0 l/m 5,0 km/h (1 Bft) W 270 3,4 C 7,4 C
02.06.2012 02:51 7,8 C 74 % 1014,7 hPa 0,0 l/m 3,2 km/h (1 Bft) W-NW 292 3,5 C 7,8 C
02.06.2012 02:56 7,7 C 74 % 1014,7 hPa 0,0 l/m 7,2 km/h (2 Bft) W-SW 247 3,4 C 6,5 C
02.06.2012 03:01 7,6 C 74 % 1014,5 hPa 0,0 l/m 10,4 km/h (2 Bft) NW 315 3,3 C 5,7 C
02.06.2012 03:06 7,5 C 74 % 1014,6 hPa 0,0 l/m 12,2 km/h (2 Bft) NW 315 3,2 C 5,3 C
02.06.2012 03:11 7,4 C 74 % 1014,6 hPa 0,0 l/m 6,1 km/h (2 Bft) W-SW 247 3,1 C 6,5 C
02.06.2012 03:16 7,4 C 75 % 1014,5 hPa 0,0 l/m 6,1 km/h (2 Bft) W-NW 292 3,3 C 6,5 C
02.06.2012 03:21 7,4 C 75 % 1014,5 hPa 0,0 l/m 22,7 km/h (4 Bft) W-NW 292 3,3 C 3,8 C
02.06.2012 03:26 7,5 C 75 % 1014,5 hPa 0,0 l/m 14,8 km/h (3 Bft) W-NW 292 3,4 C 4,9 C
02.06.2012 03:31 7,5 C 75 % 1014,5 hPa 0,0 l/m 7,9 km/h (2 Bft) W 270 3,4 C 6,1 C
02.06.2012 03:36 7,6 C 75 % 1014,5 hPa 0,0 l/m 12,2 km/h (2 Bft) NW 315 3,5 C 5,4 C
02.06.2012 03:41 7,6 C 75 % 1014,5 hPa 0,0 l/m 6,5 km/h (2 Bft) W 270 3,5 C 6,6 C
02.06.2012 03:46 7,6 C 75 % 1014,5 hPa 0,0 l/m 2,5 km/h (1 Bft) W 270 3,5 C 7,6 C
02.06.2012 03:51 7,5 C 75 % 1014,5 hPa 0,0 l/m 8,6 km/h (2 Bft) W 270 3,4 C 5,9 C
02.06.2012 03:56 7,5 C 75 % 1014,5 hPa 0,0 l/m 6,1 km/h (2 Bft) W-SW 247 3,4 C 6,6 C
02.06.2012 04:01 7,5 C 75 % 1014,4 hPa 0,0 l/m 5,8 km/h (2 Bft) W-SW 247 3,4 C 6,7 C
02.06.2012 04:06 7,5 C 75 % 1014,4 hPa 0,0 l/m 7,6 km/h (2 Bft) W-SW 247 3,4 C 6,2 C
02.06.2012 04:11 7,5 C 75 % 1014,5 hPa 0,0 l/m 3,6 km/h (1 Bft) W 270 3,4 C 7,5 C
02.06.2012 04:16 7,4 C 75 % 1014,5 hPa 0,0 l/m 10,4 km/h (2 Bft) W-SW 247 3,3 C 5,4 C
02.06.2012 04:21 7,3 C 75 % 1014,5 hPa 0,0 l/m 9,0 km/h (2 Bft) W-SW 247 3,2 C 5,6 C
02.06.2012 04:26 7,3 C 75 % 1014,5 hPa 0,0 l/m 3,2 km/h (1 Bft) W-SW 247 3,2 C 7,3 C
02.06.2012 04:31 7,3 C 76 % 1014,6 hPa 0,0 l/m 3,2 km/h (1 Bft) W-SW 247 3,4 C 7,3 C
02.06.2012 04:36 7,3 C 76 % 1014,6 hPa 0,0 l/m 3,2 km/h (1 Bft) W 270 3,4 C 7,3 C
02.06.2012 04:41 7,3 C 76 % 1014,6 hPa 0,0 l/m 9,7 km/h (2 Bft) W-SW 247 3,4 C 5,5 C
02.06.2012 04:46 7,2 C 76 % 1014,3 hPa 0,0 l/m 7,2 km/h (2 Bft) W-SW 247 3,3 C 5,9 C
02.06.2012 04:51 7,2 C 76 % 1014,4 hPa 0,0 l/m 13,7 km/h (3 Bft) W-NW 292 3,3 C 4,7 C
02.06.2012 04:56 7,1 C 77 % 1014,5 hPa 0,0 l/m 14,8 km/h (3 Bft) W 270 3,3 C 4,4 C
02.06.2012 05:01 7,1 C 77 % 1014,5 hPa 0,0 l/m 8,3 km/h (2 Bft) W-NW 292 3,3 C 5,5 C
02.06.2012 05:06 7,0 C 77 % 1014,4 hPa 0,0 l/m 9,4 km/h (2 Bft) NW 315 3,2 C 5,2 C
02.06.2012 05:11 6,9 C 77 % 1014,5 hPa 0,0 l/m 2,9 km/h (1 Bft) S-SW 202 3,2 C 6,9 C
02.06.2012 05:16 6,9 C 77 % 1014,5 hPa 0,0 l/m 7,2 km/h (2 Bft) W 270 3,2 C 5,6 C
02.06.2012 05:21 7,0 C 78 % 1014,5 hPa 0,0 l/m 5,8 km/h (2 Bft) W-SW 247 3,4 C 6,1 C
02.06.2012 05:26 7,0 C 78 % 1014,5 hPa 0,0 l/m 4,3 km/h (1 Bft) SW 225 3,4 C 7,0 C
02.06.2012 05:31 7,0 C 78 % 1014,6 hPa 0,0 l/m 8,6 km/h (2 Bft) W 270 3,4 C 5,3 C
02.06.2012 05:36 7,1 C 78 % 1014,6 hPa 0,0 l/m 7,6 km/h (2 Bft) W-SW 247 3,5 C 5,7 C
02.06.2012 05:41 7,2 C 78 % 1014,6 hPa 0,0 l/m 6,1 km/h (2 Bft) W-SW 247 3,6 C 6,2 C
02.06.2012 05:46 7,4 C 79 % 1014,7 hPa 0,0 l/m 1,4 km/h (1 Bft) W 270 4,0 C 7,4 C
02.06.2012 05:51 7,8 C 78 % 1014,6 hPa 0,0 l/m 4,7 km/h (1 Bft) W 270 4,2 C 7,4 C
02.06.2012 05:56 8,3 C 78 % 1014,8 hPa 0,0 l/m 5,4 km/h (1 Bft) W-NW 292 4,7 C 7,7 C
02.06.2012 06:01 8,6 C 76 % 1014,7 hPa 0,0 l/m 10,1 km/h (2 Bft) W-NW 292 4,6 C 6,9 C
02.06.2012 06:06 8,9 C 75 % 1014,8 hPa 0,0 l/m 7,2 km/h (2 Bft) W-SW 247 4,7 C 7,9 C
02.06.2012 06:11 9,1 C 74 % 1014,8 hPa 0,0 l/m 10,4 km/h (2 Bft) W 270 4,7 C 7,5 C
02.06.2012 06:16 9,3 C 73 % 1014,8 hPa 0,0 l/m 10,4 km/h (2 Bft) W-NW 292 4,7 C 7,7 C
02.06.2012 06:21 9,3 C 73 % 1014,8 hPa 0,0 l/m 14,8 km/h (3 Bft) W-SW 247 4,7 C 7,1 C
02.06.2012 06:26 9,5 C 72 % 1014,9 hPa 0,0 l/m 5,8 km/h (2 Bft) SW 225 4,7 C 9,0 C
02.06.2012 06:31 9,5 C 72 % 1014,9 hPa 0,0 l/m 8,3 km/h (2 Bft) W 270 4,7 C 8,4 C
02.06.2012 06:36 9,5 C 71 % 1014,8 hPa 0,0 l/m 7,2 km/h (2 Bft) W-NW 292 4,5 C 8,6 C
02.06.2012 06:41 9,4 C 71 % 1015,0 hPa 0,0 l/m 6,5 km/h (2 Bft) W 270 4,4 C 8,7 C
02.06.2012 06:46 9,3 C 71 % 1015,0 hPa 0,0 l/m 6,5 km/h (2 Bft) W 270 4,3 C 8,5 C
02.06.2012 06:51 9,4 C 71 % 1014,6 hPa 0,0 l/m 0,0 km/h (0 Bft) W-SW 247 4,4 C 9,4 C
02.06.2012 06:56 9,3 C 71 % 1014,8 hPa 0,0 l/m 9,4 km/h (2 Bft) W-SW 247 4,3 C 7,9 C
02.06.2012 07:01 9,5 C 71 % 1014,7 hPa 0,0 l/m 13,7 km/h (3 Bft) W-NW 292 4,5 C 7,5 C
02.06.2012 07:06 9,6 C 71 % 1014,8 hPa 0,0 l/m 8,6 km/h (2 Bft) W-NW 292 4,6 C 8,4 C
02.06.2012 07:11 9,6 C 71 % 1014,9 hPa 0,0 l/m 14,8 km/h (3 Bft) W-SW 247 4,6 C 7,4 C
02.06.2012 07:16 9,8 C 70 % 1014,9 hPa 0,0 l/m 3,6 km/h (1 Bft) W 270 4,6 C 9,8 C
02.06.2012 07:21 9,9 C 70 % 1014,9 hPa 0,0 l/m 12,6 km/h (3 Bft) W-SW 247 4,7 C 8,1 C
02.06.2012 07:26 10,1 C 70 % 1014,9 hPa 0,0 l/m 15,1 km/h (3 Bft) W 270 4,9 C 10,1 C
02.06.2012 07:31 10,3 C 69 % 1015,0 hPa 0,0 l/m 5,0 km/h (1 Bft) W 270 4,9 C 10,3 C
02.06.2012 07:36 10,5 C 69 % 1015,0 hPa 0,0 l/m 9,7 km/h (2 Bft) W 270 5,1 C 10,5 C
02.06.2012 07:41 10,6 C 68 % 1015,0 hPa 0,0 l/m 5,8 km/h (2 Bft) W 270 4,9 C 10,6 C
02.06.2012 07:46 10,7 C 68 % 1015,0 hPa 0,0 l/m 13,0 km/h (3 Bft) W-NW 292 5,0 C 10,7 C
02.06.2012 07:51 10,8 C 67 % 1015,1 hPa 0,0 l/m 18,7 km/h (3 Bft) W-NW 292 4,9 C 10,8 C
02.06.2012 07:56 10,9 C 67 % 1015,2 hPa 0,0 l/m 17,3 km/h (3 Bft) W 270 5,0 C 10,9 C
02.06.2012 08:01 10,9 C 66 % 1015,2 hPa 0,0 l/m 14,4 km/h (3 Bft) W-NW 292 4,8 C 10,9 C
02.06.2012 08:06 11,0 C 66 % 1015,2 hPa 0,0 l/m 8,3 km/h (2 Bft) W-SW 247 4,9 C 11,0 C
02.06.2012 08:11 11,0 C 66 % 1015,2 hPa 0,0 l/m 23,0 km/h (4 Bft) W 270 4,9 C 11,0 C
02.06.2012 08:16 11,1 C 65 % 1015,2 hPa 0,0 l/m 5,8 km/h (2 Bft) W-NW 292 4,8 C 11,1 C
02.06.2012 08:21 11,1 C 66 % 1015,2 hPa 0,0 l/m 11,5 km/h (2 Bft) W-NW 292 5,0 C 11,1 C
02.06.2012 08:26 11,3 C 65 % 1015,3 hPa 0,0 l/m 19,8 km/h (3 Bft) W 270 5,0 C 11,3 C
02.06.2012 08:31 11,4 C 65 % 1015,3 hPa 0,0 l/m 12,2 km/h (2 Bft) W-SW 247 5,1 C 11,4 C
02.06.2012 08:36 11,6 C 65 % 1015,3 hPa 0,0 l/m 11,9 km/h (2 Bft) W-SW 247 5,2 C 11,6 C
02.06.2012 08:41 11,6 C 63 % 1015,1 hPa 0,0 l/m 14,4 km/h (3 Bft) W 270 4,8 C 11,6 C
02.06.2012 08:46 11,6 C 63 % 1015,2 hPa 0,0 l/m 11,9 km/h (2 Bft) W 270 4,8 C 11,6 C
02.06.2012 08:51 11,5 C 63 % 1015,1 hPa 0,0 l/m 14,8 km/h (3 Bft) W 270 4,7 C 11,5 C
02.06.2012 08:56 11,6 C 63 % 1015,2 hPa 0,0 l/m 13,7 km/h (3 Bft) W 270 4,8 C 11,6 C
02.06.2012 09:01 11,6 C 62 % 1015,1 hPa 0,0 l/m 11,9 km/h (2 Bft) W-NW 292 4,6 C 11,6 C
02.06.2012 09:06 11,6 C 63 % 1015,1 hPa 0,0 l/m 6,5 km/h (2 Bft) W 270 4,8 C 11,6 C
02.06.2012 09:11 11,6 C 62 % 1015,3 hPa 0,0 l/m 14,0 km/h (3 Bft) W 270 4,6 C 11,6 C
02.06.2012 09:16 11,8 C 62 % 1015,1 hPa 0,0 l/m 11,5 km/h (2 Bft) NW 315 4,8 C 11,8 C
02.06.2012 09:21 11,9 C 61 % 1015,0 hPa 0,0 l/m 6,8 km/h (2 Bft) NW 315 4,6 C 11,9 C
02.06.2012 09:26 12,1 C 60 % 1015,1 hPa 0,0 l/m 5,4 km/h (1 Bft) N 360 4,6 C 12,1 C
02.06.2012 09:31 12,1 C 59 % 1015,0 hPa 0,0 l/m 8,6 km/h (2 Bft) W 270 4,3 C 12,1 C
02.06.2012 09:36 11,9 C 59 % 1015,2 hPa 0,0 l/m 7,2 km/h (2 Bft) NW 315 4,1 C 11,9 C
02.06.2012 09:41 11,9 C 59 % 1015,1 hPa 0,0 l/m 8,3 km/h (2 Bft) W 270 4,1 C 11,9 C
02.06.2012 09:46 11,9 C 59 % 1015,3 hPa 0,0 l/m 12,2 km/h (2 Bft) W-NW 292 4,1 C 11,9 C
02.06.2012 09:51 12,1 C 59 % 1015,4 hPa 0,0 l/m 5,8 km/h (2 Bft) W 270 4,3 C 12,1 C
02.06.2012 09:56 11,9 C 59 % 1015,3 hPa 0,0 l/m 8,6 km/h (2 Bft) W-NW 292 4,1 C 11,9 C
02.06.2012 10:01 11,9 C 59 % 1015,4 hPa 0,0 l/m 10,1 km/h (2 Bft) W-NW 292 4,1 C 11,9 C
02.06.2012 10:06 11,8 C 59 % 1015,2 hPa 0,0 l/m 15,5 km/h (3 Bft) W-NW 292 4,1 C 11,8 C
02.06.2012 10:11 11,7 C 59 % 1015,3 hPa 0,0 l/m 3,6 km/h (1 Bft) W 270 4,0 C 11,7 C
02.06.2012 10:16 12,1 C 59 % 1015,1 hPa 0,0 l/m 20,2 km/h (4 Bft) NW 315 4,3 C 12,1 C
02.06.2012 10:21 12,3 C 58 % 1015,2 hPa 0,0 l/m 18,4 km/h (3 Bft) W 270 4,3 C 12,3 C
02.06.2012 10:26 12,5 C 56 % 1015,1 hPa 0,0 l/m 8,3 km/h (2 Bft) NW 315 4,0 C 12,5 C
02.06.2012 10:31 12,4 C 56 % 1015,3 hPa 0,0 l/m 14,8 km/h (3 Bft) W-SW 247 3,9 C 12,4 C
02.06.2012 10:36 12,3 C 57 % 1015,3 hPa 0,0 l/m 18,0 km/h (3 Bft) W-NW 292 4,0 C 12,3 C
02.06.2012 10:41 12,4 C 59 % 1015,2 hPa 0,0 l/m 17,3 km/h (3 Bft) W-SW 247 4,6 C 12,4 C
02.06.2012 10:46 12,9 C 58 % 1015,2 hPa 0,0 l/m 10,1 km/h (2 Bft) W 270 4,8 C 12,9 C
02.06.2012 10:51 13,2 C 56 % 1015,3 hPa 0,0 l/m 12,2 km/h (2 Bft) W-NW 292 4,6 C 13,2 C
02.06.2012 10:56 13,3 C 54 % 1015,2 hPa 0,0 l/m 23,4 km/h (4 Bft) W 270 4,2 C 13,3 C
02.06.2012 11:01 13,3 C 54 % 1015,2 hPa 0,0 l/m 22,3 km/h (4 Bft) W-NW 292 4,2 C 13,3 C
02.06.2012 11:06 13,6 C 53 % 1015,0 hPa 0,0 l/m 11,9 km/h (2 Bft) W-NW 292 4,2 C 13,6 C
02.06.2012 11:11 13,8 C 53 % 1015,1 hPa 0,0 l/m 19,4 km/h (3 Bft) W-SW 247 4,4 C 13,8 C
02.06.2012 11:16 13,9 C 53 % 1015,0 hPa 0,0 l/m 5,0 km/h (1 Bft) SW 225 4,5 C 13,9 C
02.06.2012 11:21 14,1 C 50 % 1015,1 hPa 0,0 l/m 8,3 km/h (2 Bft) W-SW 247 3,8 C 14,1 C
02.06.2012 11:26 14,1 C 51 % 1015,1 hPa 0,0 l/m 13,3 km/h (3 Bft) W-NW 292 4,1 C 14,1 C
02.06.2012 11:31 14,2 C 50 % 1015,0 hPa 0,0 l/m 10,1 km/h (2 Bft) N 360 3,9 C 14,2 C
02.06.2012 11:36 13,9 C 50 % 1015,1 hPa 0,0 l/m 10,1 km/h (2 Bft) W 270 3,7 C 13,9 C
02.06.2012 11:41 13,4 C 51 % 1015,1 hPa 0,0 l/m 26,3 km/h (4 Bft) NW 315 3,5 C 13,4 C
02.06.2012 11:46 13,0 C 53 % 1015,3 hPa 0,0 l/m 17,3 km/h (3 Bft) NW 315 3,6 C 13,0 C
02.06.2012 11:51 12,5 C 55 % 1015,3 hPa 0,0 l/m 16,2 km/h (3 Bft) W-NW 292 3,7 C 12,5 C
02.06.2012 11:56 12,1 C 56 % 1015,5 hPa 0,0 l/m 9,7 km/h (2 Bft) W-NW 292 3,6 C 12,1 C
02.06.2012 12:01 11,9 C 58 % 1015,6 hPa 0,0 l/m 6,5 km/h (2 Bft) W-SW 247 3,9 C 11,9 C
02.06.2012 12:06 11,8 C 59 % 1015,4 hPa 0,0 l/m 10,1 km/h (2 Bft) NW 315 4,1 C 11,8 C
02.06.2012 12:11 11,9 C 59 % 1015,2 hPa 0,0 l/m 7,2 km/h (2 Bft) W-NW 292 4,1 C 11,9 C
02.06.2012 12:16 12,3 C 59 % 1015,0 hPa 0,0 l/m 10,1 km/h (2 Bft) N 360 4,5 C 12,3 C
02.06.2012 12:21 12,6 C 57 % 1015,3 hPa 0,0 l/m 5,8 km/h (2 Bft) NW 315 4,3 C 12,6 C
02.06.2012 12:26 13,3 C 56 % 1015,2 hPa 0,0 l/m 6,8 km/h (2 Bft) N 360 4,7 C 13,3 C
02.06.2012 12:31 13,8 C 54 % 1015,2 hPa 0,0 l/m 12,2 km/h (2 Bft) W-NW 292 4,7 C 13,8 C
02.06.2012 12:36 14,1 C 53 % 1015,0 hPa 0,0 l/m 12,2 km/h (2 Bft) NW 315 4,7 C 14,1 C
02.06.2012 12:41 14,5 C 52 % 1015,0 hPa 0,0 l/m 11,9 km/h (2 Bft) W-NW 292 4,8 C 14,5 C
02.06.2012 12:46 14,4 C 52 % 1014,9 hPa 0,0 l/m 9,7 km/h (2 Bft) W-NW 292 4,7 C 14,4 C
02.06.2012 12:51 14,4 C 52 % 1015,0 hPa 0,0 l/m 7,9 km/h (2 Bft) W-NW 292 4,7 C 14,4 C
02.06.2012 12:56 14,5 C 53 % 1015,0 hPa 0,0 l/m 19,4 km/h (3 Bft) W-NW 292 5,0 C 14,5 C
02.06.2012 13:01 14,8 C 51 % 1015,0 hPa 0,0 l/m 13,3 km/h (3 Bft) W-SW 247 4,8 C 14,8 C
02.06.2012 13:06 14,9 C 50 % 1014,9 hPa 0,0 l/m 22,0 km/h (4 Bft) W-NW 292 4,6 C 14,9 C
02.06.2012 13:11 14,9 C 49 % 1015,0 hPa 0,0 l/m 13,3 km/h (3 Bft) NW 315 4,3 C 14,9 C
02.06.2012 13:16 14,9 C 50 % 1014,9 hPa 0,0 l/m 13,7 km/h (3 Bft) W 270 4,6 C 14,9 C
02.06.2012 13:21 15,1 C 48 % 1014,9 hPa 0,0 l/m 11,2 km/h (2 Bft) W 270 4,2 C 15,1 C
02.06.2012 13:26 15,2 C 48 % 1014,9 hPa 0,0 l/m 11,2 km/h (2 Bft) W-NW 292 4,3 C 15,2 C
02.06.2012 13:31 15,5 C 48 % 1014,7 hPa 0,0 l/m 14,4 km/h (3 Bft) W 270 4,5 C 15,5 C
02.06.2012 13:36 15,5 C 48 % 1014,6 hPa 0,0 l/m 5,0 km/h (1 Bft) W-SW 247 4,5 C 15,5 C
02.06.2012 13:41 15,3 C 48 % 1014,8 hPa 0,0 l/m 10,4 km/h (2 Bft) W 270 4,4 C 15,3 C
02.06.2012 13:46 14,9 C 48 % 1014,6 hPa 0,0 l/m 15,8 km/h (3 Bft) W-NW 292 4,0 C 14,9 C
02.06.2012 13:51 14,8 C 48 % 1014,6 hPa 0,0 l/m 20,9 km/h (4 Bft) W-NW 292 3,9 C 14,8 C
02.06.2012 13:56 14,5 C 48 % 1014,7 hPa 0,0 l/m 9,0 km/h (2 Bft) W-NW 292 3,6 C 14,5 C
02.06.2012 14:01 14,3 C 49 % 1014,6 hPa 0,0 l/m 19,1 km/h (3 Bft) W-NW 292 3,7 C 14,3 C
02.06.2012 14:06 14,3 C 49 % 1014,7 hPa 0,0 l/m 16,9 km/h (3 Bft) W 270 3,7 C 14,3 C
02.06.2012 14:11 14,2 C 50 % 1014,7 hPa 0,0 l/m 16,2 km/h (3 Bft) S-SW 202 3,9 C 14,2 C
02.06.2012 14:16 14,5 C 50 % 1014,6 hPa 0,0 l/m 19,8 km/h (3 Bft) W 270 4,2 C 14,5 C
02.06.2012 14:21 14,9 C 50 % 1014,6 hPa 0,0 l/m 18,4 km/h (3 Bft) W 270 4,6 C 14,9 C
02.06.2012 14:26 15,3 C 48 % 1014,6 hPa 0,0 l/m 20,5 km/h (4 Bft) W 270 4,4 C 15,3 C
02.06.2012 14:31 15,6 C 48 % 1014,6 hPa 0,0 l/m 18,4 km/h (3 Bft) W 270 4,6 C 15,6 C
02.06.2012 14:36 15,7 C 47 % 1014,5 hPa 0,0 l/m 10,1 km/h (2 Bft) W 270 4,4 C 15,7 C
02.06.2012 14:41 15,9 C 47 % 1014,3 hPa 0,0 l/m 6,8 km/h (2 Bft) W-NW 292 4,6 C 15,9 C
02.06.2012 14:46 15,9 C 47 % 1014,3 hPa 0,0 l/m 22,3 km/h (4 Bft) W-NW 292 4,6 C 15,9 C
02.06.2012 14:51 15,9 C 46 % 1014,4 hPa 0,0 l/m 15,8 km/h (3 Bft) W-NW 292 4,3 C 15,9 C
02.06.2012 14:56 16,2 C 46 % 1014,5 hPa 0,0 l/m 22,0 km/h (4 Bft) W-SW 247 4,6 C 16,2 C
02.06.2012 15:01 16,1 C 45 % 1014,1 hPa 0,0 l/m 25,6 km/h (4 Bft) W 270 4,2 C 16,1 C
02.06.2012 15:06 15,9 C 46 % 1014,3 hPa 0,0 l/m 11,2 km/h (2 Bft) W 270 4,3 C 15,9 C
02.06.2012 15:11 15,8 C 47 % 1014,1 hPa 0,0 l/m 9,4 km/h (2 Bft) W-NW 292 4,5 C 15,8 C
02.06.2012 15:16 16,3 C 47 % 1014,2 hPa 0,0 l/m 16,6 km/h (3 Bft) NW 315 5,0 C 16,3 C
02.06.2012 15:21 16,4 C 47 % 1014,2 hPa 0,0 l/m 17,6 km/h (3 Bft) W-NW 292 5,1 C 16,4 C
02.06.2012 15:26 16,4 C 47 % 1014,1 hPa 0,0 l/m 13,7 km/h (3 Bft) W-SW 247 5,1 C 16,4 C
02.06.2012 15:31 16,1 C 46 % 1014,2 hPa 0,0 l/m 19,4 km/h (3 Bft) W-NW 292 4,5 C 16,1 C
02.06.2012 15:36 16,1 C 47 % 1014,0 hPa 0,0 l/m 14,8 km/h (3 Bft) W-SW 247 4,8 C 16,1 C
02.06.2012 15:41 16,2 C 46 % 1014,1 hPa 0,0 l/m 14,0 km/h (3 Bft) NW 315 4,6 C 16,2 C
02.06.2012 15:46 16,2 C 45 % 1014,1 hPa 0,0 l/m 27,0 km/h (4 Bft) W 270 4,3 C 16,2 C
02.06.2012 15:51 16,3 C 44 % 1014,1 hPa 0,0 l/m 7,9 km/h (2 Bft) W-SW 247 4,0 C 16,3 C
02.06.2012 15:56 16,4 C 43 % 1014,2 hPa 0,0 l/m 13,0 km/h (3 Bft) W-NW 292 3,8 C 16,4 C
02.06.2012 16:01 16,5 C 43 % 1013,9 hPa 0,0 l/m 8,3 km/h (2 Bft) NW 315 3,9 C 16,5 C
02.06.2012 16:06 16,7 C 42 % 1014,1 hPa 0,0 l/m 21,2 km/h (4 Bft) W-SW 247 3,7 C 16,7 C
02.06.2012 16:11 16,7 C 41 % 1014,0 hPa 0,0 l/m 19,1 km/h (3 Bft) W-NW 292 3,4 C 16,7 C
02.06.2012 16:16 16,3 C 42 % 1014,0 hPa 0,0 l/m 13,3 km/h (3 Bft) SW 225 3,4 C 16,3 C
02.06.2012 16:21 15,8 C 43 % 1014,1 hPa 0,0 l/m 11,9 km/h (2 Bft) NW 315 3,3 C 15,8 C
02.06.2012 16:26 15,4 C 44 % 1014,1 hPa 0,0 l/m 18,7 km/h (3 Bft) W 270 3,2 C 15,4 C
02.06.2012 16:31 14,9 C 45 % 1014,1 hPa 0,0 l/m 18,0 km/h (3 Bft) NW 315 3,1 C 14,9 C
02.06.2012 16:36 14,9 C 46 % 1014,2 hPa 0,0 l/m 4,7 km/h (1 Bft) W 270 3,4 C 14,9 C
02.06.2012 16:41 14,9 C 47 % 1014,2 hPa 0,0 l/m 14,8 km/h (3 Bft) W 270 3,7 C 14,9 C
02.06.2012 16:46 15,2 C 47 % 1014,2 hPa 0,0 l/m 8,6 km/h (2 Bft) N 360 4,0 C 15,2 C
02.06.2012 16:51 15,5 C 47 % 1014,1 hPa 0,0 l/m 6,5 km/h (2 Bft) NW 315 4,2 C 15,5 C
02.06.2012 16:56 15,4 C 47 % 1014,1 hPa 0,0 l/m 5,8 km/h (2 Bft) NW 315 4,1 C 15,4 C
02.06.2012 17:01 15,3 C 47 % 1014,1 hPa 0,0 l/m 6,8 km/h (2 Bft) W-SW 247 4,1 C 15,3 C
02.06.2012 17:06 15,4 C 47 % 1014,0 hPa 0,0 l/m 3,2 km/h (1 Bft) W 270 4,1 C 15,4 C
02.06.2012 17:11 15,5 C 47 % 1014,0 hPa 0,0 l/m 5,4 km/h (1 Bft) W-NW 292 4,2 C 15,5 C
02.06.2012 17:16 15,2 C 47 % 1014,0 hPa 0,0 l/m 3,2 km/h (1 Bft) W 270 4,0 C 15,2 C
02.06.2012 17:21 14,9 C 48 % 1014,0 hPa 0,0 l/m 9,4 km/h (2 Bft) NW 315 4,0 C 14,9 C
02.06.2012 17:26 14,9 C 48 % 1014,0 hPa 0,0 l/m 9,7 km/h (2 Bft) W 270 4,0 C 14,9 C
02.06.2012 17:31 14,8 C 49 % 1014,0 hPa 0,0 l/m 18,0 km/h (3 Bft) W-NW 292 4,2 C 14,8 C
02.06.2012 17:36 14,4 C 50 % 1014,1 hPa 0,0 l/m 16,9 km/h (3 Bft) W 270 4,1 C 14,4 C
02.06.2012 17:41 14,3 C 51 % 1013,9 hPa 0,0 l/m 8,3 km/h (2 Bft) NW 315 4,3 C 14,3 C
02.06.2012 17:46 14,3 C 51 % 1014,0 hPa 0,0 l/m 9,0 km/h (2 Bft) W 270 4,3 C 14,3 C
02.06.2012 17:51 14,2 C 51 % 1013,9 hPa 0,0 l/m 6,1 km/h (2 Bft) W 270 4,2 C 14,2 C
02.06.2012 17:56 14,2 C 51 % 1013,9 hPa 0,0 l/m 12,6 km/h (3 Bft) W 270 4,2 C 14,2 C
02.06.2012 18:01 14,3 C 52 % 1013,8 hPa 0,0 l/m 3,6 km/h (1 Bft) W-NW 292 4,6 C 14,3 C
02.06.2012 18:06 14,7 C 52 % 1013,8 hPa 0,0 l/m 13,3 km/h (3 Bft) W 270 5,0 C 14,7 C
02.06.2012 18:11 14,9 C 50 % 1013,7 hPa 0,0 l/m 5,4 km/h (1 Bft) W-NW 292 4,6 C 14,9 C
02.06.2012 18:16 14,9 C 50 % 1013,8 hPa 0,0 l/m 11,2 km/h (2 Bft) W-NW 292 4,6 C 14,9 C
02.06.2012 18:21 14,9 C 50 % 1013,7 hPa 0,0 l/m 11,9 km/h (2 Bft) W 270 4,6 C 14,9 C
02.06.2012 18:26 14,9 C 49 % 1013,7 hPa 0,0 l/m 16,9 km/h (3 Bft) W-NW 292 4,3 C 14,9 C
02.06.2012 18:31 14,9 C 49 % 1013,7 hPa 0,0 l/m 12,2 km/h (2 Bft) W 270 4,3 C 14,9 C
02.06.2012 18:36 14,9 C 49 % 1013,7 hPa 0,0 l/m 10,4 km/h (2 Bft) W 270 4,3 C 14,9 C
02.06.2012 18:41 14,9 C 49 % 1013,8 hPa 0,0 l/m 9,4 km/h (2 Bft) W-NW 292 4,3 C 14,9 C
02.06.2012 18:46 14,9 C 49 % 1013,8 hPa 0,0 l/m 5,0 km/h (1 Bft) W-NW 292 4,3 C 14,9 C
02.06.2012 18:51 14,9 C 50 % 1013,7 hPa 0,0 l/m 12,2 km/h (2 Bft) N-NW 337 4,6 C 14,9 C
02.06.2012 18:56 14,9 C 48 % 1013,7 hPa 0,0 l/m 10,1 km/h (2 Bft) W-NW 292 4,0 C 14,9 C
02.06.2012 19:01 14,9 C 48 % 1013,7 hPa 0,0 l/m 16,2 km/h (3 Bft) W 270 4,0 C 14,9 C
02.06.2012 19:06 14,7 C 48 % 1013,7 hPa 0,0 l/m 9,7 km/h (2 Bft) NW 315 3,8 C 14,7 C
02.06.2012 19:11 14,5 C 48 % 1013,7 hPa 0,0 l/m 13,7 km/h (3 Bft) W-NW 292 3,6 C 14,5 C
02.06.2012 19:16 14,4 C 48 % 1013,7 hPa 0,0 l/m 6,5 km/h (2 Bft) NW 315 3,5 C 14,4 C
02.06.2012 19:21 14,3 C 49 % 1013,7 hPa 0,0 l/m 11,2 km/h (2 Bft) W-NW 292 3,7 C 14,3 C
02.06.2012 19:26 14,3 C 49 % 1013,6 hPa 0,0 l/m 8,3 km/h (2 Bft) W-NW 292 3,7 C 14,3 C
02.06.2012 19:31 14,2 C 50 % 1013,7 hPa 0,0 l/m 8,6 km/h (2 Bft) W 270 3,9 C 14,2 C
02.06.2012 19:36 14,3 C 50 % 1013,7 hPa 0,0 l/m 8,3 km/h (2 Bft) W-NW 292 4,0 C 14,3 C
02.06.2012 19:41 14,3 C 50 % 1013,7 hPa 0,0 l/m 6,1 km/h (2 Bft) W-NW 292 4,0 C 14,3 C
02.06.2012 19:46 14,2 C 51 % 1013,8 hPa 0,0 l/m 4,0 km/h (1 Bft) W 270 4,2 C 14,2 C
02.06.2012 19:51 14,2 C 51 % 1013,8 hPa 0,0 l/m 4,0 km/h (1 Bft) W 270 4,2 C 14,2 C
02.06.2012 19:56 14,2 C 51 % 1013,7 hPa 0,0 l/m 2,9 km/h (1 Bft) W-NW 292 4,2 C 14,2 C
02.06.2012 20:01 14,2 C 51 % 1013,8 hPa 0,0 l/m 5,8 km/h (2 Bft) W-NW 292 4,2 C 14,2 C
02.06.2012 20:06 14,2 C 51 % 1013,8 hPa 0,0 l/m 5,0 km/h (1 Bft) W 270 4,2 C 14,2 C
02.06.2012 20:11 14,1 C 52 % 1013,7 hPa 0,0 l/m 4,0 km/h (1 Bft) W-NW 292 4,4 C 14,1 C
02.06.2012 20:16 14,1 C 52 % 1013,8 hPa 0,0 l/m 3,2 km/h (1 Bft) W-NW 292 4,4 C 14,1 C
02.06.2012 20:21 14,1 C 52 % 1013,7 hPa 0,0 l/m 4,0 km/h (1 Bft) W-SW 247 4,4 C 14,1 C
02.06.2012 20:26 13,9 C 52 % 1013,6 hPa 0,0 l/m 3,2 km/h (1 Bft) W-NW 292 4,2 C 13,9 C
02.06.2012 20:31 13,8 C 52 % 1013,6 hPa 0,0 l/m 3,6 km/h (1 Bft) W-NW 292 4,1 C 13,8 C
02.06.2012 20:36 13,8 C 52 % 1013,7 hPa 0,0 l/m 1,4 km/h (1 Bft) W-NW 292 4,1 C 13,8 C
02.06.2012 20:41 13,8 C 53 % 1013,5 hPa 0,0 l/m 2,2 km/h (1 Bft) W-NW 292 4,4 C 13,8 C
02.06.2012 20:46 13,8 C 53 % 1013,4 hPa 0,0 l/m 2,5 km/h (1 Bft) W-SW 247 4,4 C 13,8 C
02.06.2012 20:51 13,8 C 54 % 1013,4 hPa 0,0 l/m 3,2 km/h (1 Bft) W-SW 247 4,7 C 13,8 C
02.06.2012 20:56 13,8 C 54 % 1013,5 hPa 0,0 l/m 0,0 km/h (0 Bft) W 270 4,7 C 13,8 C
02.06.2012 21:01 13,7 C 54 % 1013,4 hPa 0,0 l/m 2,5 km/h (1 Bft) W 270 4,6 C 13,7 C
02.06.2012 21:06 13,6 C 54 % 1013,5 hPa 0,0 l/m 2,2 km/h (1 Bft) W 270 4,5 C 13,6 C
02.06.2012 21:11 13,5 C 54 % 1013,4 hPa 0,0 l/m 3,2 km/h (1 Bft) W-NW 292 4,4 C 13,5 C
02.06.2012 21:16 13,4 C 54 % 1013,5 hPa 0,0 l/m 2,5 km/h (1 Bft) W-NW 292 4,3 C 13,4 C
02.06.2012 21:21 13,3 C 55 % 1013,5 hPa 0,0 l/m 2,2 km/h (1 Bft) W 270 4,5 C 13,3 C
02.06.2012 21:26 13,3 C 55 % 1013,5 hPa 0,0 l/m 3,6 km/h (1 Bft) W-NW 292 4,5 C 13,3 C
02.06.2012 21:31 13,2 C 55 % 1013,5 hPa 0,0 l/m 2,2 km/h (1 Bft) W-NW 292 4,4 C 13,2 C
02.06.2012 21:36 13,1 C 55 % 1013,4 hPa 0,0 l/m 3,2 km/h (1 Bft) W 270 4,3 C 13,1 C
02.06.2012 21:41 13,0 C 55 % 1013,4 hPa 0,0 l/m 0,0 km/h (0 Bft) W-NW 292 4,2 C 13,0 C
02.06.2012 21:46 12,9 C 56 % 1013,4 hPa 0,0 l/m 1,4 km/h (1 Bft) W 270 4,3 C 12,9 C
02.06.2012 21:51 12,9 C 56 % 1013,4 hPa 0,0 l/m 0,0 km/h (0 Bft) W 270 4,3 C 12,9 C
02.06.2012 21:56 12,8 C 56 % 1013,4 hPa 0,0 l/m 1,1 km/h (1 Bft) NW 315 4,2 C 12,8 C
02.06.2012 22:01 12,6 C 57 % 1013,5 hPa 0,0 l/m 0,0 km/h (0 Bft) N-NW 337 4,3 C 12,6 C
02.06.2012 22:06 12,4 C 58 % 1013,6 hPa 0,0 l/m 0,0 km/h (0 Bft) NW 315 4,4 C 12,4 C
02.06.2012 22:11 12,4 C 58 % 1013,5 hPa 0,0 l/m 0,0 km/h (0 Bft) N-NW 337 4,4 C 12,4 C
02.06.2012 22:16 12,2 C 59 % 1013,5 hPa 0,0 l/m 0,0 km/h (0 Bft) N-NW 337 4,4 C 12,2 C
02.06.2012 22:21 12,2 C 59 % 1013,5 hPa 0,0 l/m 4,3 km/h (1 Bft) W-NW 292 4,4 C 12,2 C
02.06.2012 22:26 12,1 C 59 % 1013,4 hPa 0,0 l/m 1,1 km/h (1 Bft) NW 315 4,3 C 12,1 C
02.06.2012 22:31 12,0 C 60 % 1013,4 hPa 0,0 l/m 1,4 km/h (1 Bft) W-NW 292 4,5 C 12,0 C
02.06.2012 22:36 11,9 C 60 % 1013,4 hPa 0,0 l/m 0,0 km/h (0 Bft) N-NW 337 4,4 C 11,9 C
02.06.2012 22:41 11,8 C 60 % 1013,4 hPa 0,0 l/m 2,9 km/h (1 Bft) NW 315 4,3 C 11,8 C
02.06.2012 22:46 11,8 C 60 % 1013,5 hPa 0,0 l/m 2,5 km/h (1 Bft) NW 315 4,3 C 11,8 C
02.06.2012 22:51 11,6 C 60 % 1013,4 hPa 0,0 l/m 0,0 km/h (0 Bft) NW 315 4,1 C 11,6 C
02.06.2012 22:56 11,6 C 61 % 1013,4 hPa 0,0 l/m 1,1 km/h (1 Bft) W-NW 292 4,3 C 11,6 C
02.06.2012 23:01 11,6 C 60 % 1013,4 hPa 0,0 l/m 2,2 km/h (1 Bft) W-NW 292 4,1 C 11,6 C
02.06.2012 23:06 11,4 C 60 % 1013,3 hPa 0,0 l/m 0,0 km/h (0 Bft) NW 315 3,9 C 11,4 C
02.06.2012 23:11 11,3 C 61 % 1013,4 hPa 0,0 l/m 3,6 km/h (1 Bft) W-NW 292 4,1 C 11,3 C
02.06.2012 23:16 11,3 C 61 % 1013,5 hPa 0,0 l/m 1,8 km/h (1 Bft) W-NW 292 4,1 C 11,3 C
02.06.2012 23:21 11,1 C 61 % 1013,5 hPa 0,0 l/m 2,5 km/h (1 Bft) W-NW 292 3,9 C 11,1 C
02.06.2012 23:26 11,1 C 62 % 1013,5 hPa 0,0 l/m 4,7 km/h (1 Bft) NW 315 4,1 C 11,1 C
02.06.2012 23:31 10,9 C 62 % 1013,4 hPa 0,0 l/m 1,8 km/h (1 Bft) NW 315 3,9 C 10,9 C
02.06.2012 23:36 10,9 C 62 % 1013,5 hPa 0,0 l/m 0,0 km/h (0 Bft) W-NW 292 3,9 C 10,9 C
02.06.2012 23:41 10,8 C 62 % 1013,5 hPa 0,0 l/m 0,0 km/h (0 Bft) W-NW 292 3,8 C 10,8 C
02.06.2012 23:46 10,8 C 62 % 1013,5 hPa 0,0 l/m 0,0 km/h (0 Bft) W-NW 292 3,8 C 10,8 C
02.06.2012 23:51 10,7 C 63 % 1013,5 hPa 0,0 l/m 3,6 km/h (1 Bft) NW 315 3,9 C 10,7 C
02.06.2012 23:56 10,6 C 63 % 1013,5 hPa 0,0 l/m 2,2 km/h (1 Bft) W-NW 292 3,9 C 10,6 C
_ Min-Zeit 05:11 16:11 23:06 - 06:51 - - 00:01 03:21
Minimum _ 6,9 C 41 % 1013,3 hPa - 0,0 km/h (0 Bft) - - 2,8 C 3,8 C
_ Max-Zeit 16:06 05:46 12:01 00:01 15:46 - - 08:36 16:06
Maximum _ 16,7 C 79 % 1015,6 hPa 0,0 l/m 27,0 km/h
W (4 Bft)
- - 5,2 C 16,7 C
Durchschnitt _ 11,9 C 60 % 1014,4 hPa #0,0 l/m 9,2 km/h (2 Bft) W-NW - 4,1 C 11,5 C
(c) by David Heller